sensor_id;sensor_type;location;lat;lon;timestamp;P1;durP1;ratioP1;P2;durP2;ratioP2
56391;SDS011;42289;53.582;9.714;2022-12-17T00:01:17;99.82;;;40.28;;
56391;SDS011;42289;53.582;9.714;2022-12-17T00:04:01;94.45;;;39.75;;
56391;SDS011;42289;53.582;9.714;2022-12-17T00:09:31;98.97;;;39.60;;
56391;SDS011;42289;53.582;9.714;2022-12-17T00:12:15;92.93;;;37.85;;
56391;SDS011;42289;53.582;9.714;2022-12-17T00:14:59;97.45;;;41.45;;
56391;SDS011;42289;53.582;9.714;2022-12-17T00:17:43;99.40;;;40.38;;
56391;SDS011;42289;53.582;9.714;2022-12-17T00:20:27;105.47;;;39.28;;
56391;SDS011;42289;53.582;9.714;2022-12-17T00:25:56;99.85;;;37.80;;
56391;SDS011;42289;53.582;9.714;2022-12-17T00:28:40;85.85;;;37.50;;
56391;SDS011;42289;53.582;9.714;2022-12-17T00:31:25;90.63;;;38.85;;
56391;SDS011;42289;53.582;9.714;2022-12-17T00:34:06;90.65;;;37.70;;
56391;SDS011;42289;53.582;9.714;2022-12-17T00:39:35;90.10;;;36.58;;
56391;SDS011;42289;53.582;9.714;2022-12-17T00:42:19;99.03;;;38.08;;
56391;SDS011;42289;53.582;9.714;2022-12-17T00:45:03;97.00;;;37.97;;
56391;SDS011;42289;53.582;9.714;2022-12-17T00:47:49;93.03;;;37.47;;
56391;SDS011;42289;53.582;9.714;2022-12-17T00:50:33;91.60;;;37.10;;
56391;SDS011;42289;53.582;9.714;2022-12-17T00:53:16;89.75;;;37.22;;
56391;SDS011;42289;53.582;9.714;2022-12-17T00:56:02;87.38;;;36.47;;
56391;SDS011;42289;53.582;9.714;2022-12-17T00:58:45;83.75;;;36.30;;
56391;SDS011;42289;53.582;9.714;2022-12-17T01:01:29;93.45;;;36.10;;
56391;SDS011;42289;53.582;9.714;2022-12-17T01:04:13;85.47;;;35.92;;
56391;SDS011;42289;53.582;9.714;2022-12-17T01:09:41;89.90;;;36.45;;
56391;SDS011;42289;53.582;9.714;2022-12-17T01:12:26;91.88;;;35.63;;
56391;SDS011;42289;53.582;9.714;2022-12-17T01:15:13;88.47;;;36.10;;
56391;SDS011;42289;53.582;9.714;2022-12-17T01:17:57;93.78;;;37.35;;
56391;SDS011;42289;53.582;9.714;2022-12-17T01:23:21;93.53;;;36.38;;
56391;SDS011;42289;53.582;9.714;2022-12-17T01:29:05;85.30;;;35.15;;
56391;SDS011;42289;53.582;9.714;2022-12-17T01:31:49;84.32;;;35.03;;
56391;SDS011;42289;53.582;9.714;2022-12-17T01:34:33;89.20;;;36.92;;
56391;SDS011;42289;53.582;9.714;2022-12-17T01:40:02;90.03;;;35.28;;
56391;SDS011;42289;53.582;9.714;2022-12-17T01:42:46;90.72;;;35.45;;
56391;SDS011;42289;53.582;9.714;2022-12-17T01:45:33;88.57;;;36.30;;
56391;SDS011;42289;53.582;9.714;2022-12-17T01:48:21;88.95;;;36.42;;
56391;SDS011;42289;53.582;9.714;2022-12-17T01:51:09;93.50;;;37.58;;
56391;SDS011;42289;53.582;9.714;2022-12-17T01:53:53;94.53;;;36.60;;
56391;SDS011;42289;53.582;9.714;2022-12-17T01:56:38;94.72;;;37.05;;
56391;SDS011;42289;53.582;9.714;2022-12-17T01:59:27;87.00;;;36.67;;
56391;SDS011;42289;53.582;9.714;2022-12-17T02:02:19;86.00;;;35.13;;
56391;SDS011;42289;53.582;9.714;2022-12-17T02:05:04;89.25;;;35.08;;
56391;SDS011;42289;53.582;9.714;2022-12-17T02:07:50;91.53;;;36.53;;
56391;SDS011;42289;53.582;9.714;2022-12-17T02:10:45;91.05;;;35.45;;
56391;SDS011;42289;53.582;9.714;2022-12-17T02:13:40;94.43;;;37.88;;
56391;SDS011;42289;53.582;9.714;2022-12-17T02:16:28;93.50;;;36.10;;
56391;SDS011;42289;53.582;9.714;2022-12-17T02:19:36;94.63;;;37.50;;
56391;SDS011;42289;53.582;9.714;2022-12-17T02:22:31;100.30;;;36.30;;
56391;SDS011;42289;53.582;9.714;2022-12-17T02:25:27;87.47;;;35.80;;
56391;SDS011;42289;53.582;9.714;2022-12-17T02:28:20;89.68;;;36.33;;
56391;SDS011;42289;53.582;9.714;2022-12-17T02:31:04;85.30;;;34.47;;
56391;SDS011;42289;53.582;9.714;2022-12-17T02:33:50;84.50;;;35.30;;
56391;SDS011;42289;53.582;9.714;2022-12-17T02:36:34;87.72;;;37.30;;
56391;SDS011;42289;53.582;9.714;2022-12-17T02:39:18;80.45;;;33.88;;
56391;SDS011;42289;53.582;9.714;2022-12-17T02:42:03;90.45;;;36.83;;
56391;SDS011;42289;53.582;9.714;2022-12-17T02:44:49;86.82;;;35.17;;
56391;SDS011;42289;53.582;9.714;2022-12-17T02:47:34;88.97;;;35.28;;
56391;SDS011;42289;53.582;9.714;2022-12-17T02:50:18;81.63;;;34.97;;
56391;SDS011;42289;53.582;9.714;2022-12-17T02:53:03;92.43;;;35.35;;
56391;SDS011;42289;53.582;9.714;2022-12-17T02:55:48;85.47;;;34.38;;
56391;SDS011;42289;53.582;9.714;2022-12-17T02:58:31;84.40;;;34.78;;
56391;SDS011;42289;53.582;9.714;2022-12-17T03:01:17;85.75;;;33.75;;
56391;SDS011;42289;53.582;9.714;2022-12-17T03:04:13;81.65;;;33.90;;
56391;SDS011;42289;53.582;9.714;2022-12-17T03:06:56;77.35;;;34.55;;
56391;SDS011;42289;53.582;9.714;2022-12-17T03:12:25;86.05;;;32.35;;
56391;SDS011;42289;53.582;9.714;2022-12-17T03:17:59;85.00;;;33.55;;
56391;SDS011;42289;53.582;9.714;2022-12-17T03:20:44;80.88;;;33.13;;
56391;SDS011;42289;53.582;9.714;2022-12-17T03:23:28;72.80;;;33.28;;
56391;SDS011;42289;53.582;9.714;2022-12-17T03:26:08;81.20;;;33.40;;
56391;SDS011;42289;53.582;9.714;2022-12-17T03:28:52;72.10;;;30.98;;
56391;SDS011;42289;53.582;9.714;2022-12-17T03:31:36;74.38;;;31.63;;
56391;SDS011;42289;53.582;9.714;2022-12-17T03:34:22;85.28;;;33.65;;
56391;SDS011;42289;53.582;9.714;2022-12-17T03:37:06;81.07;;;32.67;;
56391;SDS011;42289;53.582;9.714;2022-12-17T03:42:34;86.90;;;33.10;;
56391;SDS011;42289;53.582;9.714;2022-12-17T03:45:17;85.57;;;33.92;;
56391;SDS011;42289;53.582;9.714;2022-12-17T03:48:05;77.53;;;32.35;;
56391;SDS011;42289;53.582;9.714;2022-12-17T03:50:52;80.05;;;33.72;;
56391;SDS011;42289;53.582;9.714;2022-12-17T03:53:36;81.10;;;32.70;;
56391;SDS011;42289;53.582;9.714;2022-12-17T03:56:17;80.15;;;32.45;;
56391;SDS011;42289;53.582;9.714;2022-12-17T03:59:01;82.72;;;33.22;;
56391;SDS011;42289;53.582;9.714;2022-12-17T04:01:45;79.97;;;32.60;;
56391;SDS011;42289;53.582;9.714;2022-12-17T04:04:31;76.30;;;32.38;;
56391;SDS011;42289;53.582;9.714;2022-12-17T04:10:00;77.18;;;30.73;;
56391;SDS011;42289;53.582;9.714;2022-12-17T04:12:44;73.47;;;31.25;;
56391;SDS011;42289;53.582;9.714;2022-12-17T04:15:29;82.65;;;32.30;;
56391;SDS011;42289;53.582;9.714;2022-12-17T04:18:13;79.53;;;32.10;;
56391;SDS011;42289;53.582;9.714;2022-12-17T04:20:57;82.78;;;30.95;;
56391;SDS011;42289;53.582;9.714;2022-12-17T04:23:42;73.78;;;31.45;;
56391;SDS011;42289;53.582;9.714;2022-12-17T04:26:26;78.28;;;30.90;;
56391;SDS011;42289;53.582;9.714;2022-12-17T04:31:54;69.13;;;29.60;;
56391;SDS011;42289;53.582;9.714;2022-12-17T04:34:38;69.32;;;31.27;;
56391;SDS011;42289;53.582;9.714;2022-12-17T04:40:09;64.85;;;28.40;;
56391;SDS011;42289;53.582;9.714;2022-12-17T04:42:53;71.60;;;29.85;;
56391;SDS011;42289;53.582;9.714;2022-12-17T04:48:21;68.82;;;29.17;;
56391;SDS011;42289;53.582;9.714;2022-12-17T04:51:05;74.82;;;30.15;;
56391;SDS011;42289;53.582;9.714;2022-12-17T04:53:49;65.95;;;29.25;;
56391;SDS011;42289;53.582;9.714;2022-12-17T04:59:18;80.57;;;29.30;;
56391;SDS011;42289;53.582;9.714;2022-12-17T05:02:02;72.57;;;29.42;;
56391;SDS011;42289;53.582;9.714;2022-12-17T05:04:46;71.53;;;28.88;;
56391;SDS011;42289;53.582;9.714;2022-12-17T05:10:14;72.00;;;28.73;;
56391;SDS011;42289;53.582;9.714;2022-12-17T05:12:57;64.57;;;28.08;;
56391;SDS011;42289;53.582;9.714;2022-12-17T05:15:41;74.50;;;28.95;;
56391;SDS011;42289;53.582;9.714;2022-12-17T05:18:25;66.53;;;29.08;;
56391;SDS011;42289;53.582;9.714;2022-12-17T05:21:09;71.95;;;30.08;;
56391;SDS011;42289;53.582;9.714;2022-12-17T05:26:37;69.78;;;29.17;;
56391;SDS011;42289;53.582;9.714;2022-12-17T05:29:23;71.30;;;30.27;;
56391;SDS011;42289;53.582;9.714;2022-12-17T05:32:07;69.53;;;27.83;;
56391;SDS011;42289;53.582;9.714;2022-12-17T05:37:35;68.00;;;28.60;;
56391;SDS011;42289;53.582;9.714;2022-12-17T05:43:04;67.32;;;29.05;;
56391;SDS011;42289;53.582;9.714;2022-12-17T05:45:51;67.72;;;28.02;;
56391;SDS011;42289;53.582;9.714;2022-12-17T05:48:34;68.95;;;29.40;;
56391;SDS011;42289;53.582;9.714;2022-12-17T05:51:19;65.47;;;27.70;;
56391;SDS011;42289;53.582;9.714;2022-12-17T05:54:03;64.53;;;28.83;;
56391;SDS011;42289;53.582;9.714;2022-12-17T05:56:48;64.05;;;29.15;;
56391;SDS011;42289;53.582;9.714;2022-12-17T05:59:32;66.40;;;29.10;;
56391;SDS011;42289;53.582;9.714;2022-12-17T06:02:17;66.65;;;29.15;;
56391;SDS011;42289;53.582;9.714;2022-12-17T06:05:01;71.50;;;29.85;;
56391;SDS011;42289;53.582;9.714;2022-12-17T06:07:45;71.05;;;29.17;;
56391;SDS011;42289;53.582;9.714;2022-12-17T06:13:13;61.83;;;26.37;;
56391;SDS011;42289;53.582;9.714;2022-12-17T06:15:57;58.35;;;26.17;;
56391;SDS011;42289;53.582;9.714;2022-12-17T06:21:27;61.17;;;26.98;;
56391;SDS011;42289;53.582;9.714;2022-12-17T06:24:11;66.15;;;26.65;;
56391;SDS011;42289;53.582;9.714;2022-12-17T06:26:55;68.15;;;27.90;;
56391;SDS011;42289;53.582;9.714;2022-12-17T06:29:39;59.33;;;26.40;;
56391;SDS011;42289;53.582;9.714;2022-12-17T06:32:23;76.32;;;29.08;;
56391;SDS011;42289;53.582;9.714;2022-12-17T06:35:09;64.13;;;28.17;;
56391;SDS011;42289;53.582;9.714;2022-12-17T06:37:57;67.97;;;28.92;;
56391;SDS011;42289;53.582;9.714;2022-12-17T06:40:41;63.85;;;29.67;;
56391;SDS011;42289;53.582;9.714;2022-12-17T06:46:09;68.22;;;29.00;;
56391;SDS011;42289;53.582;9.714;2022-12-17T06:48:50;70.35;;;28.80;;
56391;SDS011;42289;53.582;9.714;2022-12-17T06:51:44;73.70;;;30.52;;
56391;SDS011;42289;53.582;9.714;2022-12-17T06:54:28;75.35;;;29.88;;
56391;SDS011;42289;53.582;9.714;2022-12-17T06:57:12;69.15;;;29.33;;
56391;SDS011;42289;53.582;9.714;2022-12-17T06:59:56;66.55;;;29.17;;
56391;SDS011;42289;53.582;9.714;2022-12-17T07:02:40;73.10;;;29.77;;
56391;SDS011;42289;53.582;9.714;2022-12-17T07:05:24;62.45;;;28.27;;
56391;SDS011;42289;53.582;9.714;2022-12-17T07:10:53;67.18;;;27.92;;
56391;SDS011;42289;53.582;9.714;2022-12-17T07:16:21;63.07;;;28.00;;
56391;SDS011;42289;53.582;9.714;2022-12-17T07:19:05;70.90;;;28.65;;
56391;SDS011;42289;53.582;9.714;2022-12-17T07:24:35;68.90;;;28.40;;
56391;SDS011;42289;53.582;9.714;2022-12-17T07:27:19;65.07;;;28.75;;
56391;SDS011;42289;53.582;9.714;2022-12-17T07:30:03;67.95;;;29.45;;
56391;SDS011;42289;53.582;9.714;2022-12-17T07:32:56;66.70;;;29.88;;
56391;SDS011;42289;53.582;9.714;2022-12-17T07:35:41;66.72;;;29.80;;
56391;SDS011;42289;53.582;9.714;2022-12-17T07:38:25;71.30;;;30.42;;
56391;SDS011;42289;53.582;9.714;2022-12-17T07:43:54;66.95;;;29.13;;
56391;SDS011;42289;53.582;9.714;2022-12-17T07:46:38;74.80;;;30.33;;
56391;SDS011;42289;53.582;9.714;2022-12-17T07:49:22;71.90;;;30.52;;
56391;SDS011;42289;53.582;9.714;2022-12-17T07:52:17;72.65;;;30.70;;
56391;SDS011;42289;53.582;9.714;2022-12-17T07:55:01;75.82;;;30.92;;
56391;SDS011;42289;53.582;9.714;2022-12-17T07:57:47;69.22;;;30.52;;
56391;SDS011;42289;53.582;9.714;2022-12-17T08:00:40;67.82;;;29.58;;
56391;SDS011;42289;53.582;9.714;2022-12-17T08:03:24;74.40;;;30.42;;
56391;SDS011;42289;53.582;9.714;2022-12-17T08:06:08;68.00;;;30.30;;
56391;SDS011;42289;53.582;9.714;2022-12-17T08:08:52;68.35;;;30.42;;
56391;SDS011;42289;53.582;9.714;2022-12-17T08:14:21;70.53;;;28.90;;
56391;SDS011;42289;53.582;9.714;2022-12-17T08:17:05;67.68;;;29.48;;
56391;SDS011;42289;53.582;9.714;2022-12-17T08:19:49;74.10;;;30.08;;
56391;SDS011;42289;53.582;9.714;2022-12-17T08:22:33;71.90;;;29.75;;
56391;SDS011;42289;53.582;9.714;2022-12-17T08:25:17;71.28;;;29.80;;
56391;SDS011;42289;53.582;9.714;2022-12-17T08:30:47;74.17;;;29.90;;
56391;SDS011;42289;53.582;9.714;2022-12-17T08:33:33;76.95;;;31.67;;
56391;SDS011;42289;53.582;9.714;2022-12-17T08:36:17;72.78;;;30.77;;
56391;SDS011;42289;53.582;9.714;2022-12-17T08:41:45;66.20;;;28.88;;
56391;SDS011;42289;53.582;9.714;2022-12-17T08:47:13;68.38;;;28.13;;
56391;SDS011;42289;53.582;9.714;2022-12-17T08:49:57;66.80;;;29.20;;
56391;SDS011;42289;53.582;9.714;2022-12-17T08:52:41;70.88;;;29.67;;
56391;SDS011;42289;53.582;9.714;2022-12-17T08:58:09;72.93;;;29.30;;
56391;SDS011;42289;53.582;9.714;2022-12-17T09:00:56;73.75;;;31.23;;
56391;SDS011;42289;53.582;9.714;2022-12-17T09:03:42;73.18;;;29.92;;
56391;SDS011;42289;53.582;9.714;2022-12-17T09:06:25;74.68;;;30.90;;
56391;SDS011;42289;53.582;9.714;2022-12-17T09:09:09;72.80;;;30.77;;
56391;SDS011;42289;53.582;9.714;2022-12-17T09:11:54;72.03;;;31.00;;
56391;SDS011;42289;53.582;9.714;2022-12-17T09:14:38;68.50;;;30.15;;
56391;SDS011;42289;53.582;9.714;2022-12-17T09:17:22;79.55;;;31.52;;
56391;SDS011;42289;53.582;9.714;2022-12-17T09:20:08;72.10;;;29.58;;
56391;SDS011;42289;53.582;9.714;2022-12-17T09:22:52;69.82;;;29.23;;
56391;SDS011;42289;53.582;9.714;2022-12-17T09:25:36;64.00;;;29.48;;
56391;SDS011;42289;53.582;9.714;2022-12-17T09:28:20;67.85;;;29.92;;
56391;SDS011;42289;53.582;9.714;2022-12-17T09:31:04;65.70;;;28.73;;
56391;SDS011;42289;53.582;9.714;2022-12-17T09:33:48;68.85;;;30.80;;
56391;SDS011;42289;53.582;9.714;2022-12-17T09:36:33;71.55;;;31.48;;
56391;SDS011;42289;53.582;9.714;2022-12-17T09:39:17;60.15;;;28.80;;
56391;SDS011;42289;53.582;9.714;2022-12-17T09:42:02;70.03;;;29.15;;
56391;SDS011;42289;53.582;9.714;2022-12-17T09:44:57;73.70;;;30.25;;
56391;SDS011;42289;53.582;9.714;2022-12-17T09:47:48;62.13;;;28.65;;
56391;SDS011;42289;53.582;9.714;2022-12-17T09:50:37;66.07;;;29.55;;
56391;SDS011;42289;53.582;9.714;2022-12-17T09:53:31;63.05;;;28.45;;
56391;SDS011;42289;53.582;9.714;2022-12-17T09:56:19;59.92;;;28.23;;
56391;SDS011;42289;53.582;9.714;2022-12-17T09:59:07;66.25;;;29.42;;
56391;SDS011;42289;53.582;9.714;2022-12-17T10:01:54;71.22;;;30.08;;
56391;SDS011;42289;53.582;9.714;2022-12-17T10:07:25;63.88;;;27.85;;
56391;SDS011;42289;53.582;9.714;2022-12-17T10:10:16;68.88;;;28.42;;
56391;SDS011;42289;53.582;9.714;2022-12-17T10:13:06;56.50;;;26.92;;
56391;SDS011;42289;53.582;9.714;2022-12-17T10:15:53;53.72;;;26.10;;
56391;SDS011;42289;53.582;9.714;2022-12-17T10:18:37;52.22;;;24.60;;
56391;SDS011;42289;53.582;9.714;2022-12-17T10:24:05;56.90;;;25.75;;
56391;SDS011;42289;53.582;9.714;2022-12-17T10:26:52;51.15;;;23.77;;
56391;SDS011;42289;53.582;9.714;2022-12-17T10:29:37;54.22;;;24.55;;
56391;SDS011;42289;53.582;9.714;2022-12-17T10:32:21;55.53;;;25.20;;
56391;SDS011;42289;53.582;9.714;2022-12-17T10:35:06;51.65;;;24.77;;
56391;SDS011;42289;53.582;9.714;2022-12-17T10:37:58;48.78;;;25.27;;
56391;SDS011;42289;53.582;9.714;2022-12-17T10:40:42;50.65;;;24.73;;
56391;SDS011;42289;53.582;9.714;2022-12-17T10:43:28;49.33;;;25.00;;
56391;SDS011;42289;53.582;9.714;2022-12-17T10:46:21;49.28;;;23.73;;
56391;SDS011;42289;53.582;9.714;2022-12-17T10:49:10;52.42;;;24.85;;
56391;SDS011;42289;53.582;9.714;2022-12-17T10:52:00;53.28;;;25.23;;
56391;SDS011;42289;53.582;9.714;2022-12-17T10:54:53;47.95;;;24.20;;
56391;SDS011;42289;53.582;9.714;2022-12-17T10:57:40;45.70;;;24.23;;
56391;SDS011;42289;53.582;9.714;2022-12-17T11:00:27;49.63;;;24.23;;
56391;SDS011;42289;53.582;9.714;2022-12-17T11:03:23;48.78;;;24.27;;
56391;SDS011;42289;53.582;9.714;2022-12-17T11:06:11;49.38;;;24.45;;
56391;SDS011;42289;53.582;9.714;2022-12-17T11:08:59;48.33;;;23.35;;
56391;SDS011;42289;53.582;9.714;2022-12-17T11:11:45;52.97;;;23.33;;
56391;SDS011;42289;53.582;9.714;2022-12-17T11:14:31;48.38;;;23.35;;
56391;SDS011;42289;53.582;9.714;2022-12-17T11:17:18;47.72;;;22.70;;
56391;SDS011;42289;53.582;9.714;2022-12-17T11:20:04;53.28;;;24.55;;
56391;SDS011;42289;53.582;9.714;2022-12-17T11:22:52;50.20;;;22.90;;
56391;SDS011;42289;53.582;9.714;2022-12-17T11:25:40;47.75;;;22.60;;
56391;SDS011;42289;53.582;9.714;2022-12-17T11:28:28;45.15;;;22.02;;
56391;SDS011;42289;53.582;9.714;2022-12-17T11:31:26;40.10;;;21.00;;
56391;SDS011;42289;53.582;9.714;2022-12-17T11:34:26;42.22;;;21.50;;
56391;SDS011;42289;53.582;9.714;2022-12-17T11:37:17;42.08;;;21.77;;
56391;SDS011;42289;53.582;9.714;2022-12-17T11:40:09;42.78;;;21.45;;
56391;SDS011;42289;53.582;9.714;2022-12-17T11:43:05;44.25;;;20.65;;
56391;SDS011;42289;53.582;9.714;2022-12-17T11:46:01;38.60;;;19.77;;
56391;SDS011;42289;53.582;9.714;2022-12-17T11:48:57;43.45;;;21.02;;
56391;SDS011;42289;53.582;9.714;2022-12-17T11:51:51;39.40;;;19.67;;
56391;SDS011;42289;53.582;9.714;2022-12-17T11:54:41;36.13;;;19.15;;
56391;SDS011;42289;53.582;9.714;2022-12-17T11:57:34;39.67;;;20.13;;
56391;SDS011;42289;53.582;9.714;2022-12-17T12:00:26;36.78;;;19.58;;
56391;SDS011;42289;53.582;9.714;2022-12-17T12:03:15;36.65;;;18.65;;
56391;SDS011;42289;53.582;9.714;2022-12-17T12:06:09;35.03;;;17.98;;
56391;SDS011;42289;53.582;9.714;2022-12-17T12:09:02;38.25;;;18.55;;
56391;SDS011;42289;53.582;9.714;2022-12-17T12:11:55;35.63;;;18.10;;
56391;SDS011;42289;53.582;9.714;2022-12-17T12:14:48;37.63;;;17.40;;
56391;SDS011;42289;53.582;9.714;2022-12-17T12:17:39;32.05;;;16.02;;
56391;SDS011;42289;53.582;9.714;2022-12-17T12:20:33;33.97;;;16.17;;
56391;SDS011;42289;53.582;9.714;2022-12-17T12:23:33;32.42;;;15.88;;
56391;SDS011;42289;53.582;9.714;2022-12-17T12:26:31;33.28;;;15.40;;
56391;SDS011;42289;53.582;9.714;2022-12-17T12:29:25;28.53;;;15.30;;
56391;SDS011;42289;53.582;9.714;2022-12-17T12:32:17;27.55;;;14.88;;
56391;SDS011;42289;53.582;9.714;2022-12-17T12:35:04;27.67;;;14.43;;
56391;SDS011;42289;53.582;9.714;2022-12-17T12:37:56;28.85;;;15.30;;
56391;SDS011;42289;53.582;9.714;2022-12-17T12:40:42;27.20;;;14.27;;
56391;SDS011;42289;53.582;9.714;2022-12-17T12:43:36;32.60;;;15.53;;
56391;SDS011;42289;53.582;9.714;2022-12-17T12:46:25;29.02;;;14.68;;
56391;SDS011;42289;53.582;9.714;2022-12-17T12:52:11;26.85;;;13.50;;
56391;SDS011;42289;53.582;9.714;2022-12-17T12:55:03;31.10;;;13.57;;
56391;SDS011;42289;53.582;9.714;2022-12-17T12:57:55;25.90;;;13.75;;
56391;SDS011;42289;53.582;9.714;2022-12-17T13:00:51;29.80;;;14.00;;
56391;SDS011;42289;53.582;9.714;2022-12-17T13:03:37;28.60;;;14.40;;
56391;SDS011;42289;53.582;9.714;2022-12-17T13:06:37;28.20;;;13.45;;
56391;SDS011;42289;53.582;9.714;2022-12-17T13:09:17;26.67;;;14.15;;
56391;SDS011;42289;53.582;9.714;2022-12-17T13:11:46;30.00;;;14.95;;
56391;SDS011;42289;53.582;9.714;2022-12-17T13:14:14;29.17;;;13.93;;
56391;SDS011;42289;53.582;9.714;2022-12-17T13:16:49;31.48;;;15.07;;
56391;SDS011;42289;53.582;9.714;2022-12-17T13:19:30;26.33;;;14.57;;
56391;SDS011;42289;53.582;9.714;2022-12-17T13:22:08;31.83;;;15.40;;
56391;SDS011;42289;53.582;9.714;2022-12-17T13:24:36;28.70;;;15.75;;
56391;SDS011;42289;53.582;9.714;2022-12-17T13:27:03;33.53;;;16.92;;
56391;SDS011;42289;53.582;9.714;2022-12-17T13:29:30;32.72;;;15.60;;
56391;SDS011;42289;53.582;9.714;2022-12-17T13:32:11;31.15;;;15.23;;
56391;SDS011;42289;53.582;9.714;2022-12-17T13:34:48;29.65;;;15.57;;
56391;SDS011;42289;53.582;9.714;2022-12-17T13:37:28;30.55;;;16.42;;
56391;SDS011;42289;53.582;9.714;2022-12-17T13:40:12;26.95;;;15.00;;
56391;SDS011;42289;53.582;9.714;2022-12-17T13:42:51;30.90;;;15.73;;
56391;SDS011;42289;53.582;9.714;2022-12-17T13:45:18;30.55;;;15.13;;
56391;SDS011;42289;53.582;9.714;2022-12-17T13:47:52;27.50;;;14.95;;
56391;SDS011;42289;53.582;9.714;2022-12-17T13:50:20;29.15;;;14.90;;
56391;SDS011;42289;53.582;9.714;2022-12-17T13:52:48;31.05;;;15.25;;
56391;SDS011;42289;53.582;9.714;2022-12-17T13:55:18;28.92;;;14.63;;
56391;SDS011;42289;53.582;9.714;2022-12-17T13:57:46;30.25;;;14.70;;
56391;SDS011;42289;53.582;9.714;2022-12-17T14:00:18;27.40;;;14.05;;
56391;SDS011;42289;53.582;9.714;2022-12-17T14:02:46;26.27;;;14.63;;
56391;SDS011;42289;53.582;9.714;2022-12-17T14:05:21;29.90;;;15.23;;
56391;SDS011;42289;53.582;9.714;2022-12-17T14:07:54;29.05;;;15.45;;
56391;SDS011;42289;53.582;9.714;2022-12-17T14:10:23;29.38;;;14.30;;
56391;SDS011;42289;53.582;9.714;2022-12-17T14:12:50;27.17;;;14.27;;
56391;SDS011;42289;53.582;9.714;2022-12-17T14:15:17;28.73;;;14.40;;
56391;SDS011;42289;53.582;9.714;2022-12-17T14:17:49;29.30;;;14.68;;
56391;SDS011;42289;53.582;9.714;2022-12-17T14:20:17;26.00;;;14.32;;
56391;SDS011;42289;53.582;9.714;2022-12-17T14:22:47;28.63;;;15.77;;
56391;SDS011;42289;53.582;9.714;2022-12-17T14:25:16;30.90;;;15.93;;
56391;SDS011;42289;53.582;9.714;2022-12-17T14:27:48;34.17;;;16.08;;
56391;SDS011;42289;53.582;9.714;2022-12-17T14:32:47;30.73;;;15.35;;
56391;SDS011;42289;53.582;9.714;2022-12-17T14:35:24;35.40;;;16.58;;
56391;SDS011;42289;53.582;9.714;2022-12-17T14:37:54;33.15;;;15.90;;
56391;SDS011;42289;53.582;9.714;2022-12-17T14:40:22;35.38;;;17.17;;
56391;SDS011;42289;53.582;9.714;2022-12-17T14:42:49;32.17;;;16.35;;
56391;SDS011;42289;53.582;9.714;2022-12-17T14:45:21;32.00;;;16.60;;
56391;SDS011;42289;53.582;9.714;2022-12-17T14:47:52;34.78;;;17.25;;
56391;SDS011;42289;53.582;9.714;2022-12-17T14:50:24;35.85;;;16.75;;
56391;SDS011;42289;53.582;9.714;2022-12-17T14:52:58;35.78;;;17.35;;
56391;SDS011;42289;53.582;9.714;2022-12-17T14:55:28;35.95;;;17.10;;
56391;SDS011;42289;53.582;9.714;2022-12-17T14:58:08;31.25;;;16.05;;
56391;SDS011;42289;53.582;9.714;2022-12-17T15:00:41;37.30;;;16.80;;
56391;SDS011;42289;53.582;9.714;2022-12-17T15:03:10;33.90;;;16.95;;
56391;SDS011;42289;53.582;9.714;2022-12-17T15:05:43;37.03;;;17.63;;
56391;SDS011;42289;53.582;9.714;2022-12-17T15:08:14;33.33;;;16.40;;
56391;SDS011;42289;53.582;9.714;2022-12-17T15:10:41;36.72;;;15.75;;
56391;SDS011;42289;53.582;9.714;2022-12-17T15:13:07;31.95;;;16.25;;
56391;SDS011;42289;53.582;9.714;2022-12-17T15:15:33;36.58;;;16.67;;
56391;SDS011;42289;53.582;9.714;2022-12-17T15:18:00;35.78;;;16.42;;
56391;SDS011;42289;53.582;9.714;2022-12-17T15:20:26;36.70;;;16.45;;
56391;SDS011;42289;53.582;9.714;2022-12-17T15:22:53;37.47;;;17.83;;
56391;SDS011;42289;53.582;9.714;2022-12-17T15:25:20;36.42;;;17.38;;
56391;SDS011;42289;53.582;9.714;2022-12-17T15:27:47;38.05;;;17.42;;
56391;SDS011;42289;53.582;9.714;2022-12-17T15:30:14;36.65;;;17.83;;
56391;SDS011;42289;53.582;9.714;2022-12-17T15:32:42;40.20;;;18.95;;
56391;SDS011;42289;53.582;9.714;2022-12-17T15:35:10;41.70;;;19.35;;
56391;SDS011;42289;53.582;9.714;2022-12-17T15:37:37;36.33;;;18.67;;
56391;SDS011;42289;53.582;9.714;2022-12-17T15:40:04;41.15;;;19.45;;
56391;SDS011;42289;53.582;9.714;2022-12-17T15:42:33;38.65;;;18.92;;
56391;SDS011;42289;53.582;9.714;2022-12-17T15:45:17;43.15;;;19.42;;
56391;SDS011;42289;53.582;9.714;2022-12-17T15:47:43;41.10;;;20.17;;
56391;SDS011;42289;53.582;9.714;2022-12-17T15:50:10;44.05;;;19.10;;
56391;SDS011;42289;53.582;9.714;2022-12-17T15:52:36;37.33;;;19.58;;
56391;SDS011;42289;53.582;9.714;2022-12-17T15:55:03;42.05;;;20.45;;
56391;SDS011;42289;53.582;9.714;2022-12-17T15:57:29;47.00;;;21.08;;
56391;SDS011;42289;53.582;9.714;2022-12-17T15:59:57;39.13;;;19.52;;
56391;SDS011;42289;53.582;9.714;2022-12-17T16:02:23;39.85;;;20.20;;
56391;SDS011;42289;53.582;9.714;2022-12-17T16:04:50;42.15;;;19.95;;
56391;SDS011;42289;53.582;9.714;2022-12-17T16:07:16;39.50;;;19.80;;
56391;SDS011;42289;53.582;9.714;2022-12-17T16:09:43;39.70;;;19.25;;
56391;SDS011;42289;53.582;9.714;2022-12-17T16:12:09;40.97;;;19.88;;
56391;SDS011;42289;53.582;9.714;2022-12-17T16:14:35;38.97;;;20.23;;
56391;SDS011;42289;53.582;9.714;2022-12-17T16:17:03;37.67;;;19.35;;
56391;SDS011;42289;53.582;9.714;2022-12-17T16:19:30;36.90;;;18.65;;
56391;SDS011;42289;53.582;9.714;2022-12-17T16:21:56;42.30;;;20.60;;
56391;SDS011;42289;53.582;9.714;2022-12-17T16:24:22;39.65;;;19.90;;
56391;SDS011;42289;53.582;9.714;2022-12-17T16:26:49;40.25;;;19.73;;
56391;SDS011;42289;53.582;9.714;2022-12-17T16:29:15;37.17;;;18.98;;
56391;SDS011;42289;53.582;9.714;2022-12-17T16:31:42;41.55;;;18.63;;
56391;SDS011;42289;53.582;9.714;2022-12-17T16:34:11;44.97;;;20.17;;
56391;SDS011;42289;53.582;9.714;2022-12-17T16:36:38;42.85;;;20.73;;
56391;SDS011;42289;53.582;9.714;2022-12-17T16:39:04;40.78;;;18.92;;
56391;SDS011;42289;53.582;9.714;2022-12-17T16:41:31;40.65;;;18.95;;
56391;SDS011;42289;53.582;9.714;2022-12-17T16:43:57;39.65;;;19.55;;
56391;SDS011;42289;53.582;9.714;2022-12-17T16:46:26;36.10;;;19.10;;
56391;SDS011;42289;53.582;9.714;2022-12-17T16:48:53;39.03;;;18.55;;
56391;SDS011;42289;53.582;9.714;2022-12-17T16:51:23;39.70;;;18.92;;
56391;SDS011;42289;53.582;9.714;2022-12-17T16:53:50;41.70;;;20.40;;
56391;SDS011;42289;53.582;9.714;2022-12-17T16:56:18;41.60;;;19.23;;
56391;SDS011;42289;53.582;9.714;2022-12-17T16:58:46;46.30;;;20.73;;
56391;SDS011;42289;53.582;9.714;2022-12-17T17:01:13;47.28;;;21.08;;
56391;SDS011;42289;53.582;9.714;2022-12-17T17:03:43;46.60;;;20.63;;
56391;SDS011;42289;53.582;9.714;2022-12-17T17:06:10;38.65;;;19.38;;
56391;SDS011;42289;53.582;9.714;2022-12-17T17:08:37;47.85;;;20.98;;
56391;SDS011;42289;53.582;9.714;2022-12-17T17:11:06;43.97;;;20.83;;
56391;SDS011;42289;53.582;9.714;2022-12-17T17:13:33;45.85;;;20.33;;
56391;SDS011;42289;53.582;9.714;2022-12-17T17:15:59;45.70;;;20.23;;
56391;SDS011;42289;53.582;9.714;2022-12-17T17:18:25;42.80;;;20.70;;
56391;SDS011;42289;53.582;9.714;2022-12-17T17:20:52;43.88;;;21.35;;